^^
Datos históricos de la estación: Murcia-Puente Tocinos
Diario Informe para Febrero 16, 2019 Unidades:  Métrico    Ingés   Ambas
Diario Semanal Mensual Anual
  Máxima: Mínima: Promedio:
Temperatura: 13.8 °C 8.1 °C 11.1 °C
Punto de rocio: 10.2 °C 6 °C 8.2 °C
Humedad: 88% 74% 83%
Velocidad viento: 7.6km/h 0km/h 3km/h
Racha viento: 11.9km/h - -
Viento- - SSO
Presión: 1011.4 hPa 1000.9 hPa -
Precipitación: 0.0 mm    
 
 
Tabla de datos para Febrero 16, 2019
Hora Temperatura Punto de rocio Presión Viento Velocidad viento Racha viento Humedad Intensidad lluvia(por hora) Nubes
00:04 10.9 °C 8 °C 1011.3 hPa SO 3.4 km/h 4.8 km/h 82% 0.0 mm
00:09 10.8 °C 8 °C 1011.4 hPa SO 2.9 km/h 4.8 km/h 82.9% 0.0 mm
00:14 10.7 °C 7.9 °C 1011.4 hPa SO 1.4 km/h 3.9 km/h 83% 0.0 mm
00:19 10.7 °C 8.1 °C 1011.4 hPa Calm   3.7 km/h 83.7% 0.0 mm
00:24 10.6 °C 8 °C 1011.4 hPa Calm   7.4 km/h 84% 0.0 mm
00:29 10.6 °C 8 °C 1011.3 hPa Calm   8 km/h 84% 0.0 mm
00:34 10.6 °C 8 °C 1011.3 hPa SSE 1.6 km/h 7.4 km/h 84% 0.0 mm
00:39 10.5 °C 8 °C 1011.3 hPa Sur 3.2 km/h 8 km/h 84.5% 0.0 mm
00:44 10.5 °C 8.1 °C 1011.3 hPa SSE 4 km/h 8.4 km/h 85% 0.0 mm
00:49 10.5 °C 8.1 °C 1011.3 hPa Sur 4.6 km/h 8 km/h 85% 0.0 mm
00:54 10.4 °C 8.1 °C 1011.3 hPa SSO 3.9 km/h 6.4 km/h 85% 0.0 mm
00:59 10.4 °C 8 °C 1011.2 hPa Sur 3.2 km/h 7.4 km/h 85% 0.0 mm
01:04 10.4 °C 8 °C 1011.2 hPa SE 2.7 km/h 8 km/h 85% 0.0 mm
01:09 10.4 °C 8 °C 1011.2 hPa ESE 2.2 km/h 4.8 km/h 85% 0.0 mm
01:14 10.4 °C 8 °C 1011.0 hPa ESE 2.2 km/h 5 km/h 85% 0.0 mm
01:19 10.3 °C 7.9 °C 1011.0 hPa ESE 2.2 km/h 4.8 km/h 85% 0.0 mm
01:24 10.2 °C 7.8 °C 1011.0 hPa ESE 1.2 km/h 4.7 km/h 85% 0.0 mm
01:29 10.2 °C 7.8 °C 1010.9 hPa Calm   4.8 km/h 85% 0.0 mm
01:34 10.2 °C 7.8 °C 1010.9 hPa SSO 1.6 km/h 5.8 km/h 85% 0.0 mm
01:39 10.2 °C 7.8 °C 1010.9 hPa SSO 3.2 km/h 6.4 km/h 85.4% 0.0 mm
01:44 10.1 °C 7.9 °C 1010.8 hPa SSO 3.2 km/h 5 km/h 86% 0.0 mm
01:49 10.1 °C 7.9 °C 1010.8 hPa SSO 3.2 km/h 4.8 km/h 86% 0.0 mm
01:54 10.1 °C 7.9 °C 1010.8 hPa SSO 3.1 km/h 6.9 km/h 86% 0.0 mm
01:59 10.1 °C 7.7 °C 1010.6 hPa SSO 2.9 km/h 8.4 km/h 85.3% 0.0 mm
02:04 10.1 °C 7.7 °C 1010.6 hPa SSO 3.4 km/h 8 km/h 85% 0.0 mm
02:09 10 °C 7.5 °C 1010.6 hPa Sur 3.9 km/h 9.5 km/h 84.5% 0.0 mm
02:14 10 °C 7.3 °C 1010.4 hPa Sur 4.2 km/h 9.7 km/h 83.5% 0.0 mm
02:19 10 °C 7.2 °C 1010.4 hPa Sur 4.7 km/h 8 km/h 83% 0.0 mm
02:24 10.1 °C 7.3 °C 1010.5 hPa SSO 4.7 km/h 7.4 km/h 83% 0.0 mm
02:29 10.1 °C 7.2 °C 1010.5 hPa Sur 4.7 km/h 8 km/h 82.4% 0.0 mm
02:34 10.1 °C 7.1 °C 1010.5 hPa SSO 4.7 km/h 8 km/h 82% 0.0 mm
02:39 10 °C 7.1 °C 1010.5 hPa SSO 4.7 km/h 8 km/h 82% 0.0 mm
02:44 10 °C 7.1 °C 1010.2 hPa SSO 3.5 km/h 6.4 km/h 82% 0.0 mm
02:49 9.9 °C 7.1 °C 1010.2 hPa SSO 2.2 km/h 1.6 km/h 82.3% 0.0 mm
02:54 9.8 °C 7.1 °C 1010.2 hPa SSO 1.1 km/h 4.7 km/h 83% 0.0 mm
02:59 9.8 °C 7.1 °C 1010.2 hPa Calm   4.8 km/h 83.5% 0.0 mm
03:04 9.7 °C 7.1 °C 1010.2 hPa Calm   4.7 km/h 84% 0.0 mm
03:09 9.6 °C 7.1 °C 1010.2 hPa Calm   5.6 km/h 84.3% 0.0 mm
03:14 9.4 °C 7 °C 1010.1 hPa OSO 1.4 km/h 4.8 km/h 85.1% 0.0 mm
03:19 9.4 °C 7.1 °C 1010.1 hPa OSO 2.9 km/h 3.7 km/h 86% 0.0 mm
03:24 9.3 °C 7.1 °C 1010.1 hPa OSO 1.5 km/h 3.2 km/h 86% 0.0 mm
03:29 9.3 °C 7.2 °C 1010.1 hPa Calm   4.7 km/h 86.8% 0.0 mm
03:34 9.2 °C 7.2 °C 1010.1 hPa Calm   4.8 km/h 87% 0.0 mm
03:39 9.2 °C 7.2 °C 1010.1 hPa Calm   3.2 km/h 87% 0.0 mm
03:44 9.2 °C 7.2 °C 1009.9 hPa Calm     87% 0.0 mm
03:49 9.2 °C 7.2 °C 1009.9 hPa Calm     87% 0.0 mm
03:54 9.2 °C 7.2 °C 1009.9 hPa Calm     87% 0.0 mm
03:59 9.2 °C 7.2 °C 1009.9 hPa Calm   3.9 km/h 87% 0.0 mm
04:04 9.2 °C 7.1 °C 1009.9 hPa Calm   3.7 km/h 87% 0.0 mm
04:09 9.1 °C 7.1 °C 1009.9 hPa Calm   3.2 km/h 87.1% 0.0 mm
04:14 9.1 °C 7.2 °C 1009.8 hPa Calm   7.4 km/h 88% 0.0 mm
04:19 9.1 °C 7.2 °C 1009.8 hPa Calm   8 km/h 88% 0.0 mm
04:24 9.1 °C 7.2 °C 1009.8 hPa SE 1.5 km/h 8 km/h 88% 0.0 mm
04:29 9.1 °C 7.1 °C 1009.6 hPa SE 3.2 km/h 8 km/h 87.3% 0.0 mm
04:34 9.1 °C 7.1 °C 1009.6 hPa SSE 3.5 km/h 8 km/h 87% 0.0 mm
04:39 9.1 °C 7 °C 1009.6 hPa SSO 3.9 km/h 8 km/h 87% 0.0 mm
04:44 9 °C 7 °C 1009.6 hPa SSO 3.9 km/h 8 km/h 87% 0.0 mm
04:49 9 °C 6.9 °C 1009.6 hPa SSO 3.9 km/h 6.4 km/h 87% 0.0 mm
04:54 9 °C 6.9 °C 1009.6 hPa SSO 3.5 km/h 4.8 km/h 87% 0.0 mm
04:59 9 °C 7 °C 1009.3 hPa Sur 3.2 km/h 5.6 km/h 87% 0.0 mm
05:04 9.1 °C 6.9 °C 1009.3 hPa Este 3.2 km/h 5.6 km/h 86.2% 0.0 mm
05:09 9 °C 6.8 °C 1009.4 hPa Sur 3.2 km/h 7.4 km/h 86% 0.0 mm
05:14 8.9 °C 6.7 °C 1009.4 hPa SSO 3.2 km/h 8 km/h 86% 0.0 mm
05:19 8.9 °C 6.7 °C 1009.4 hPa SSO 3.2 km/h 8.4 km/h 86% 0.0 mm
05:24 8.9 °C 6.7 °C 1009.4 hPa SSO 3.2 km/h 8 km/h 86% 0.0 mm
05:29 8.9 °C 6.7 °C 1009.3 hPa SSO 3.2 km/h 8 km/h 86% 0.0 mm
05:34 8.8 °C 6.6 °C 1009.3 hPa SSO 3.9 km/h 8 km/h 86% 0.0 mm
05:39 8.8 °C 6.6 °C 1009.3 hPa SSO 4.7 km/h 8 km/h 86% 0.0 mm
05:44 8.8 °C 6.4 °C 1009.1 hPa Sur 4 km/h 8 km/h 85.1% 0.0 mm
05:49 8.8 °C 6.4 °C 1009.1 hPa SSO 3.2 km/h 8 km/h 85% 0.0 mm
05:54 8.9 °C 6.5 °C 1009.1 hPa SSO 3.2 km/h 8 km/h 85% 0.0 mm
05:59 8.9 °C 6.5 °C 1009.0 hPa SSO 3.2 km/h 3.7 km/h 85% 0.0 mm
06:04 8.9 °C 6.5 °C 1009.0 hPa SSO 1.6 km/h 1.6 km/h 85% 0.0 mm
06:09 8.9 °C 6.5 °C 1009.3 hPa Calm   7.6 km/h 85% 0.0 mm
06:14 8.9 °C 6.5 °C 1009.3 hPa SSO 1.5 km/h 8 km/h 85% 0.0 mm
06:19 8.9 °C 6.5 °C 1009.3 hPa SSO 3.2 km/h 8 km/h 85% 0.0 mm
06:24 8.9 °C 6.5 °C 1009.3 hPa SSO 2.8 km/h 3.2 km/h 85% 0.0 mm
06:29 8.9 °C 6.5 °C 1009.0 hPa SSO 2.2 km/h 5.8 km/h 85% 0.0 mm
06:34 8.9 °C 6.5 °C 1009.0 hPa SSE 2.2 km/h 7.6 km/h 85% 0.0 mm
06:39 8.8 °C 6.4 °C 1009.1 hPa Sur 2.2 km/h 9.3 km/h 84.8% 0.0 mm
06:44 8.8 °C 6.4 °C 1009.1 hPa SSO 3.6 km/h 9.7 km/h 85% 0.0 mm
06:49 8.8 °C 6.4 °C 1009.1 hPa Sur 5 km/h 9.7 km/h 85% 0.0 mm
06:54 8.8 °C 6.4 °C 1009.1 hPa SSO 5 km/h 9.7 km/h 85% 0.0 mm
06:59 8.8 °C 6.4 °C 1008.9 hPa SSO 5 km/h 8 km/h 85% 0.0 mm
07:04 8.8 °C 6.4 °C 1008.9 hPa SSO 3.6 km/h 3.9 km/h 85% 0.0 mm
07:09 8.8 °C 6.4 °C 1008.9 hPa SSO 2.2 km/h 4.7 km/h 84.9% 0.0 mm
07:14 8.8 °C 6.2 °C 1008.8 hPa SO 2.2 km/h 5.8 km/h 84% 0.0 mm
07:19 8.7 °C 6.1 °C 1008.8 hPa North 2.2 km/h 6.4 km/h 84% 0.0 mm
07:24 8.4 °C 6 °C 1008.9 hPa NNO 2.7 km/h 6.4 km/h 84.8% 0.0 mm
07:29 8.3 °C 6.1 °C 1008.9 hPa NNO 3.2 km/h 5.8 km/h 85.9% 0.0 mm
07:34 8.2 °C 6 °C 1008.9 hPa NNO 3.1 km/h 6.4 km/h 86% 0.0 mm
07:39 8.2 °C 6.1 °C 1009.0 hPa NNO 2.9 km/h 3.9 km/h 86.7% 0.0 mm
07:44 8.1 °C 6.1 °C 1009.0 hPa NNO 2.6 km/h 3.9 km/h 87% 0.0 mm
07:49 8.1 °C 6.1 °C 1009.0 hPa NNO 2.2 km/h 3.9 km/h 87.6% 0.0 mm
07:54 8.1 °C 6.2 °C 1009.2 hPa NNO 1.1 km/h 3.7 km/h 88% 0.0 mm
07:59 8.1 °C 6.2 °C 1009.2 hPa Calm   3.2 km/h 88% 0.0 mm
08:04 8.2 °C 6.3 °C 1009.2 hPa Calm   3.7 km/h 88% 0.0 mm
08:09 8.2 °C 6.3 °C 1009.2 hPa Calm   4.7 km/h 88% 0.0 mm
08:14 8.3 °C 6.4 °C 1009.1 hPa NNO 1.2 km/h 4.8 km/h 88% 0.0 mm
08:19 8.3 °C 6.4 °C 1009.1 hPa NNO 2.2 km/h 5 km/h 88% 0.0 mm
08:24 8.2 °C 6.2 °C 1009.1 hPa NNO 1.1 km/h 5.6 km/h 87.2% 0.0 mm
08:29 8.2 °C 6.2 °C 1009.1 hPa Calm   4.8 km/h 87.3% 0.0 mm
08:34 8.2 °C 6.3 °C 1009.1 hPa Oeste 1.4 km/h 9.3 km/h 88% 0.0 mm
08:39 8.2 °C 6.3 °C 1009.1 hPa Oeste 2.9 km/h 9.7 km/h 88% 0.0 mm
08:44 8.2 °C 6.3 °C 1008.9 hPa OSO 2.9 km/h 8 km/h 88% 0.0 mm
08:49 8.2 °C 6.4 °C 1008.9 hPa SO 2.9 km/h 5.6 km/h 88% 0.0 mm
08:54 8.3 °C 6.4 °C 1009.0 hPa SSE 2.9 km/h 5.6 km/h 88% 0.0 mm
08:59 8.4 °C 6.4 °C 1009.0 hPa Sur 2.9 km/h 7.6 km/h 87.4% 0.0 mm
09:04 8.4 °C 6.3 °C 1009.0 hPa SE 3.1 km/h 8 km/h 87% 0.0 mm
09:09 8.5 °C 6.3 °C 1009.0 hPa SE 3.2 km/h 9.3 km/h 86.5% 0.0 mm
09:14 8.5 °C 6.3 °C 1008.8 hPa SE 4 km/h 9.7 km/h 86% 0.0 mm
09:19 8.6 °C 6.4 °C 1008.8 hPa Sur 4.7 km/h 9.3 km/h 86% 0.0 mm
09:24 8.6 °C 6.4 °C 1008.8 hPa Sur 4.8 km/h 9.7 km/h 86% 0.0 mm
09:29 8.7 °C 6.5 °C 1008.8 hPa SO 5 km/h 8.4 km/h 86% 0.0 mm
09:34 8.8 °C 6.5 °C 1008.8 hPa SSO 5.4 km/h 9.5 km/h 85.5% 0.0 mm
09:39 8.8 °C 6.3 °C 1009.0 hPa SSO 5.8 km/h 10.3 km/h 84.3% 0.0 mm
09:44 8.9 °C 6.4 °C 1009.0 hPa Sur 6.3 km/h 11.9 km/h 84% 0.0 mm
09:49 9 °C 6.3 °C 1009.0 hPa Sur 6.9 km/h 11.9 km/h 83.3% 0.0 mm
09:54 9.1 °C 6.4 °C 1009.2 hPa Sur 7.2 km/h 11.3 km/h 83% 0.0 mm
09:59 9.1 °C 6.4 °C 1009.2 hPa SSO 7.6 km/h 9.7 km/h 83% 0.0 mm
10:04 9.2 °C 6.4 °C 1009.2 hPa Sur 6 km/h 9.7 km/h 83% 0.0 mm
10:09 9.2 °C 6.4 °C 1009.2 hPa Sur 4.7 km/h 8 km/h 83% 0.0 mm
10:14 9.3 °C 6.5 °C 1008.9 hPa SSO 3.8 km/h 6.4 km/h 83% 0.0 mm
10:19 9.4 °C 6.6 °C 1008.9 hPa Oeste 2.9 km/h 7.4 km/h 83% 0.0 mm
10:24 9.5 °C 6.6 °C 1008.9 hPa ONO 3.1 km/h 8 km/h 82.4% 0.0 mm
10:29 9.6 °C 6.7 °C 1008.7 hPa Oeste 3.2 km/h 8 km/h 82.2% 0.0 mm
10:34 9.6 °C 6.7 °C 1008.7 hPa SO 3.9 km/h 10 km/h 82% 0.0 mm
10:39 9.7 °C 6.7 °C 1008.9 hPa OSO 4.6 km/h 9.7 km/h 82% 0.0 mm
10:44 9.7 °C 6.8 °C 1008.9 hPa OSO 4.7 km/h 8 km/h 82.2% 0.0 mm
10:49 9.8 °C 6.9 °C 1008.9 hPa Oeste 4.7 km/h 8 km/h 82% 0.0 mm
10:54 9.8 °C 6.9 °C 1009.0 hPa Oeste 3.9 km/h 8 km/h 81.9% 0.0 mm
10:59 9.9 °C 6.8 °C 1009.0 hPa SO 3.2 km/h 8 km/h 81% 0.0 mm
11:04 10.1 °C 7 °C 1009.0 hPa SSO 3.5 km/h 8.7 km/h 81% 0.0 mm
11:09 10.2 °C 6.9 °C 1009.0 hPa SSE 3.9 km/h 9.7 km/h 80.2% 0.0 mm
11:14 10.3 °C 7 °C 1008.8 hPa SSE 4.4 km/h 9.7 km/h 80% 0.0 mm
11:19 10.4 °C 7.1 °C 1008.8 hPa ESE 5 km/h 8.4 km/h 80% 0.0 mm
11:24 10.4 °C 7 °C 1008.8 hPa Sur 4.8 km/h 9.3 km/h 79.2% 0.0 mm
11:29 10.5 °C 7 °C 1008.7 hPa SSO 4.7 km/h 9.7 km/h 79% 0.0 mm
11:34 10.6 °C 7.1 °C 1008.7 hPa Sur 3.4 km/h 5.8 km/h 79% 0.0 mm
11:39 10.7 °C 7.2 °C 1008.7 hPa SSE 2.2 km/h 6.4 km/h 78.6% 0.0 mm
11:44 10.8 °C 7.1 °C 1008.5 hPa Sur 2.6 km/h 7.6 km/h 78% 0.0 mm
11:49 10.8 °C 7.1 °C 1008.5 hPa SSO 2.9 km/h 8.4 km/h 78% 0.0 mm
11:54 10.8 °C 7.1 °C 1008.5 hPa Oeste 3.8 km/h 8 km/h 78% 0.0 mm
11:59 10.8 °C 7.2 °C 1008.2 hPa SO 4.7 km/h 9.3 km/h 78% 0.0 mm
12:04 10.9 °C 7.2 °C 1008.2 hPa SSO 4.7 km/h 9.7 km/h 78% 0.0 mm
12:09 11 °C 7.3 °C 1008.2 hPa SSE 4.6 km/h 8 km/h 77.7% 0.0 mm
12:14 11.2 °C 7.3 °C 1007.9 hPa SE 3.9 km/h 8 km/h 77% 0.0 mm
12:19 11.3 °C 7.4 °C 1007.9 hPa SE 3.2 km/h 8 km/h 77% 0.0 mm
12:24 11.3 °C 7.4 °C 1007.9 hPa SE 3.1 km/h 8 km/h 76.8% 0.0 mm
12:29 11.5 °C 7.4 °C 1007.3 hPa ESE 2.9 km/h 8 km/h 76% 0.0 mm
12:34 11.6 °C 7.5 °C 1007.3 hPa SSO 3.4 km/h 8 km/h 76% 0.0 mm
12:39 11.7 °C 7.6 °C 1007.3 hPa SO 3.9 km/h 8 km/h 76% 0.0 mm
12:44 11.8 °C 7.5 °C 1007.2 hPa OSO 4.3 km/h 8 km/h 75.3% 0.0 mm
12:49 11.8 °C 7.7 °C 1007.2 hPa OSO 4.7 km/h 8 km/h 75.9% 0.0 mm
12:54 12 °C 7.9 °C 1007.2 hPa SO 3.8 km/h 6.4 km/h 76% 0.0 mm
12:59 12.2 °C 8.1 °C 1006.6 hPa OSO 2.9 km/h 8 km/h 76% 0.0 mm
13:04 12.4 °C 8.3 °C 1006.6 hPa SSO 2.9 km/h 8 km/h 76% 0.0 mm
13:09 12.7 °C 8.4 °C 1006.6 hPa ENE 2.9 km/h 5.6 km/h 75.4% 0.0 mm
13:14 12.8 °C 8.5 °C 1006.2 hPa NNE 2.6 km/h 5.6 km/h 74.8% 0.0 mm
13:19 13 °C 8.4 °C 1006.2 hPa NE 2.2 km/h 5.6 km/h 74% 0.0 mm
13:24 13.1 °C 8.6 °C 1006.2 hPa ENE 2.6 km/h 7.4 km/h 74.2% 0.0 mm
13:29 13.1 °C 8.7 °C 1006.2 hPa SO 2.9 km/h 8 km/h 74.7% 0.0 mm
13:34 13.2 °C 8.9 °C 1006.2 hPa SO 1.5 km/h 3.9 km/h 74.9% 0.0 mm
13:39 13.4 °C 8.9 °C 1006.2 hPa Calm   5.8 km/h 74.5% 0.0 mm
13:44 13.4 °C 8.8 °C 1005.7 hPa NNO 1.4 km/h 6.4 km/h 74% 0.0 mm
13:49 13.4 °C 8.9 °C 1005.7 hPa NNO 2.9 km/h 5.6 km/h 74.4% 0.0 mm
13:54 13.4 °C 9.1 °C 1005.7 hPa NO 2.6 km/h 7.4 km/h 75% 0.0 mm
13:59 13.4 °C 9.2 °C 1005.5 hPa Oeste 2.2 km/h 8 km/h 75.7% 0.0 mm
14:04 13.3 °C 9.3 °C 1005.5 hPa Oeste 2.8 km/h 4.8 km/h 76.8% 0.0 mm
14:09 13.4 °C 9.5 °C 1005.5 hPa ONO 3.2 km/h 4.7 km/h 77% 0.0 mm
14:14 13.6 °C 9.5 °C 1005.2 hPa NNO 1.7 km/h 4.8 km/h 76.4% 0.0 mm
14:19 13.6 °C 9.4 °C 1005.2 hPa Calm   6.9 km/h 76% 0.0 mm
14:24 13.6 °C 9.4 °C 1005.2 hPa ENE 1.5 km/h 8 km/h 76% 0.0 mm
14:29 13.5 °C 9.3 °C 1005.1 hPa ENE 3.2 km/h 8 km/h 76% 0.0 mm
14:34 13.6 °C 9.5 °C 1005.1 hPa ENE 2.7 km/h 5.6 km/h 76.4% 0.0 mm
14:39 13.6 °C 9.5 °C 1005.1 hPa NE 2.2 km/h 5.8 km/h 76.4% 0.0 mm
14:44 13.6 °C 9.7 °C 1004.7 hPa NE 2.6 km/h 7.6 km/h 77% 0.0 mm
14:49 13.6 °C 9.7 °C 1004.7 hPa North 2.9 km/h 8 km/h 77% 0.0 mm
14:54 13.7 °C 9.7 °C 1004.7 hPa NE 2.9 km/h 7.6 km/h 77% 0.0 mm
14:59 13.6 °C 9.7 °C 1004.6 hPa NE 2.9 km/h 8 km/h 77% 0.0 mm
15:04 13.6 °C 9.7 °C 1004.6 hPa NE 2.9 km/h 5.8 km/h 77% 0.0 mm
15:09 13.6 °C 9.7 °C 1004.6 hPa NNE 2.9 km/h 7.4 km/h 77% 0.0 mm
15:14 13.6 °C 9.8 °C 1004.3 hPa NO 3.1 km/h 8 km/h 78% 0.0 mm
15:19 13.6 °C 9.8 °C 1004.3 hPa NO 3.2 km/h 6.4 km/h 78% 0.0 mm
15:24 13.7 °C 9.7 °C 1004.3 hPa NO 2.8 km/h 4.8 km/h 77.1% 0.0 mm
15:29 13.6 °C 9.7 °C 1004.3 hPa NO 2.2 km/h 4.8 km/h 77% 0.0 mm
15:34 13.7 °C 9.7 °C 1004.3 hPa NO 1.2 km/h 6.9 km/h 77% 0.0 mm
15:39 13.6 °C 9.7 °C 1004.3 hPa Calm   8 km/h 77% 0.0 mm
15:44 13.6 °C 9.8 °C 1004.1 hPa NNE 1.1 km/h 4.8 km/h 77.6% 0.0 mm
15:49 13.6 °C 9.8 °C 1004.1 hPa NNE 2.2 km/h 2.3 km/h 78% 0.0 mm
15:54 13.7 °C 9.9 °C 1004.1 hPa NNE 1.1 km/h 5.6 km/h 77.8% 0.0 mm
15:59 13.7 °C 9.9 °C 1004.1 hPa Calm   7.4 km/h 78% 0.0 mm
16:04 13.7 °C 9.9 °C 1004.1 hPa Este 1.8 km/h 8 km/h 78% 0.0 mm
16:09 13.7 °C 9.9 °C 1004.1 hPa ESE 3.2 km/h 8 km/h 78% 0.0 mm
16:14 13.7 °C 9.9 °C 1004.1 hPa ESE 3.5 km/h 8 km/h 78% 0.0 mm
16:19 13.7 °C 10 °C 1004.1 hPa ESE 3.9 km/h 8 km/h 78.2% 0.0 mm
16:24 13.7 °C 10.1 °C 1004.1 hPa ESE 3.5 km/h 6.4 km/h 79% 0.0 mm
16:29 13.7 °C 10.1 °C 1003.9 hPa ESE 3.2 km/h 8 km/h 79% 0.0 mm
16:34 13.7 °C 10.1 °C 1003.9 hPa ESE 3.1 km/h 8 km/h 79% 0.0 mm
16:39 13.7 °C 10.1 °C 1003.9 hPa ESE 2.9 km/h 4.8 km/h 79% 0.0 mm
16:44 13.7 °C 10.1 °C 1003.8 hPa ESE 1.4 km/h 3.2 km/h 79% 0.0 mm
16:49 13.7 °C 10.1 °C 1003.8 hPa Calm   5.6 km/h 79% 0.0 mm
16:54 13.8 °C 10.2 °C 1003.8 hPa Calm   6.4 km/h 79% 0.0 mm
16:59 13.8 °C 10.2 °C 1003.7 hPa Calm   8 km/h 79% 0.0 mm
17:04 13.8 °C 10.2 °C 1003.7 hPa Oeste 2.1 km/h 8 km/h 79% 0.0 mm
17:09 13.7 °C 10.1 °C 1003.7 hPa Oeste 3.9 km/h 8.4 km/h 79% 0.0 mm
17:14 13.7 °C 10.1 °C 1003.5 hPa ONO 3.9 km/h 8 km/h 79% 0.0 mm
17:19 13.7 °C 10.1 °C 1003.5 hPa ONO 3.9 km/h 5.6 km/h 78.9% 0.0 mm
17:24 13.7 °C 9.9 °C 1003.5 hPa OSO 3.4 km/h 5.8 km/h 78% 0.0 mm
17:29 13.7 °C 9.9 °C 1003.5 hPa OSO 2.9 km/h 6.4 km/h 78% 0.0 mm
17:34 13.6 °C 9.8 °C 1003.5 hPa OSO 2.6 km/h 4.8 km/h 78% 0.0 mm
17:39 13.6 °C 9.8 °C 1003.5 hPa OSO 2.2 km/h 4.8 km/h 78% 0.0 mm
17:44 13.6 °C 9.8 °C 1003.2 hPa OSO 1.2 km/h 3.9 km/h 78% 0.0 mm
17:49 13.6 °C 9.9 °C 1003.2 hPa Calm   5.6 km/h 78.7% 0.0 mm
17:54 13.6 °C 10.1 °C 1003.2 hPa North 1.2 km/h 4.8 km/h 79.6% 0.0 mm
17:59 13.5 °C 10.1 °C 1002.8 hPa North 2.2 km/h 4.8 km/h 80% 0.0 mm
18:04 13.4 °C 10 °C 1002.8 hPa North 2.2 km/h 3.7 km/h 80% 0.0 mm
18:09 13.4 °C 10 °C 1002.8 hPa North 2.2 km/h 3.7 km/h 80% 0.0 mm
18:14 13.4 °C 10 °C 1002.6 hPa ENE 2.2 km/h 5.8 km/h 80% 0.0 mm
18:19 13.3 °C 9.9 °C 1002.6 hPa SE 2.2 km/h 7.4 km/h 80% 0.0 mm
18:24 13.3 °C 9.9 °C 1002.7 hPa SSO 3.5 km/h 8.4 km/h 80% 0.0 mm
18:29 13.3 °C 9.9 °C 1002.7 hPa SSO 4.6 km/h 8 km/h 80% 0.0 mm
18:34 13.3 °C 9.9 °C 1002.7 hPa SO 4.8 km/h 8 km/h 80% 0.0 mm
18:39 13.3 °C 9.9 °C 1002.7 hPa SO 5 km/h 8 km/h 80% 0.0 mm
18:44 13.3 °C 9.9 °C 1002.7 hPa SO 4.1 km/h 8 km/h 80% 0.0 mm
18:49 13.3 °C 9.9 °C 1002.7 hPa SO 3.2 km/h 3.7 km/h 80% 0.0 mm
18:54 13.3 °C 9.9 °C 1002.7 hPa SO 1.6 km/h 5.8 km/h 80% 0.0 mm
18:59 13.3 °C 9.9 °C 1002.5 hPa Calm   6.4 km/h 80% 0.0 mm
19:04 13.2 °C 9.8 °C 1002.5 hPa SO 1.2 km/h 4.8 km/h 80% 0.0 mm
19:09 13.2 °C 9.8 °C 1002.5 hPa SSO 2.2 km/h 5.8 km/h 80% 0.0 mm
19:14 13.2 °C 9.8 °C 1002.3 hPa SE 2.2 km/h 7.6 km/h 80% 0.0 mm
19:19 13.2 °C 9.8 °C 1002.3 hPa SE 2.2 km/h 8 km/h 80% 0.0 mm
19:24 13.2 °C 9.8 °C 1002.3 hPa ESE 3 km/h 8 km/h 80% 0.0 mm
19:29 13.1 °C 9.8 °C 1002.1 hPa ESE 3.9 km/h 8 km/h 80% 0.0 mm
19:34 13 °C 9.8 °C 1002.1 hPa ESE 4.3 km/h 8 km/h 81% 0.0 mm
19:39 12.8 °C 9.8 °C 1002.4 hPa SO 4.6 km/h 8 km/h 81.6% 0.0 mm
19:44 12.8 °C 9.8 °C 1002.4 hPa OSO 4.7 km/h 9.3 km/h 82% 0.0 mm
19:49 12.8 °C 9.8 °C 1002.4 hPa OSO 4.6 km/h 9.7 km/h 82% 0.0 mm
19:54 12.7 °C 9.7 °C 1002.4 hPa OSO 3.7 km/h 5.8 km/h 82% 0.0 mm
19:59 12.7 °C 9.7 °C 1002.3 hPa OSO 2.9 km/h 7.4 km/h 82% 0.0 mm
20:04 12.6 °C 9.7 °C 1002.3 hPa Oeste 3.1 km/h 8 km/h 82.7% 0.0 mm
20:09 12.6 °C 9.8 °C 1002.3 hPa OSO 3.2 km/h 7.6 km/h 83% 0.0 mm
20:14 12.6 °C 9.8 °C 1002.3 hPa SO 3.6 km/h 8 km/h 83% 0.0 mm
20:19 12.6 °C 9.8 °C 1002.3 hPa SO 3.9 km/h 8 km/h 83% 0.0 mm
20:24 12.6 °C 9.8 °C 1002.3 hPa SO 3.1 km/h 5.8 km/h 83% 0.0 mm
20:29 12.6 °C 9.8 °C 1002.2 hPa SSO 2.2 km/h 7.4 km/h 83% 0.0 mm
20:34 12.6 °C 9.8 °C 1002.2 hPa SE 3.5 km/h 8 km/h 83% 0.0 mm
20:39 12.6 °C 9.8 °C 1002.2 hPa SSE 4.7 km/h 8.4 km/h 83% 0.0 mm
20:44 12.4 °C 9.6 °C 1002.2 hPa SSE 4.8 km/h 8 km/h 83% 0.0 mm
20:49 12.3 °C 9.6 °C 1002.2 hPa SSE 5 km/h 8 km/h 83.3% 0.0 mm
20:54 12.3 °C 9.7 °C 1002.2 hPa Sur 5 km/h 10 km/h 84% 0.0 mm
20:59 12.3 °C 9.7 °C 1002.1 hPa SSE 5 km/h 9.7 km/h 84% 0.0 mm
21:04 12.3 °C 9.7 °C 1002.1 hPa SSO 5.4 km/h 8.4 km/h 84% 0.0 mm
21:09 12.3 °C 9.7 °C 1002.1 hPa SSO 5.8 km/h 9.3 km/h 84% 0.0 mm
21:14 12.3 °C 9.7 °C 1001.8 hPa SSO 5.4 km/h 9.7 km/h 84% 0.0 mm
21:19 12.4 °C 9.8 °C 1001.8 hPa SSO 5 km/h 8 km/h 84% 0.0 mm
21:24 12.4 °C 9.8 °C 1001.9 hPa SSO 4.1 km/h 8 km/h 84% 0.0 mm
21:29 12.4 °C 9.8 °C 1001.9 hPa SSO 3.2 km/h 4.7 km/h 84% 0.0 mm
21:34 12.4 °C 9.8 °C 1001.9 hPa OSO 3.1 km/h 8.4 km/h 84% 0.0 mm
21:39 12.3 °C 9.7 °C 1001.9 hPa OSO 2.9 km/h 10 km/h 84% 0.0 mm
21:44 12.3 °C 9.8 °C 1001.9 hPa OSO 4.3 km/h 11.1 km/h 84.9% 0.0 mm
21:49 12.3 °C 9.8 °C 1001.9 hPa SO 5.8 km/h 11.3 km/h 85% 0.0 mm
21:54 12.3 °C 9.8 °C 1001.9 hPa OSO 5.8 km/h 9.7 km/h 85% 0.0 mm
21:59 12.3 °C 9.9 °C 1001.9 hPa Oeste 5.8 km/h 9.7 km/h 85% 0.0 mm
22:04 12.4 °C 9.9 °C 1001.9 hPa Oeste 4.8 km/h 8 km/h 85% 0.0 mm
22:09 12.4 °C 9.9 °C 1001.9 hPa Oeste 3.9 km/h 4.8 km/h 85% 0.0 mm
22:14 12.4 °C 9.9 °C 1001.8 hPa Oeste 3 km/h 7.6 km/h 85% 0.0 mm
22:19 12.4 °C 10 °C 1001.8 hPa SO 2.2 km/h 8 km/h 85.1% 0.0 mm
22:24 12.4 °C 10.1 °C 1001.8 hPa SO 2.7 km/h 8 km/h 85.8% 0.0 mm
22:29 12.4 °C 10.1 °C 1001.8 hPa Sur 3.2 km/h 7.6 km/h 85.5% 0.0 mm
22:34 12.5 °C 10 °C 1001.8 hPa SSE 4 km/h 8 km/h 85% 0.0 mm
22:39 12.4 °C 10 °C 1001.8 hPa Sur 4.6 km/h 9.3 km/h 85% 0.0 mm
22:44 12.4 °C 9.9 °C 1001.7 hPa Sur 4.8 km/h 9.7 km/h 85% 0.0 mm
22:49 12.4 °C 9.9 °C 1001.7 hPa SSE 5 km/h 8 km/h 85% 0.0 mm
22:54 12.3 °C 9.9 °C 1001.7 hPa SE 4.5 km/h 8.4 km/h 85.1% 0.0 mm
22:59 12.3 °C 9.9 °C 1001.4 hPa SSE 3.9 km/h 8.4 km/h 85.5% 0.0 mm
23:04 12.3 °C 10 °C 1001.4 hPa Sur 4.9 km/h 9.3 km/h 86% 0.0 mm
23:09 12.3 °C 10 °C 1001.4 hPa SSO 5.8 km/h 9.7 km/h 86% 0.0 mm
23:14 12.3 °C 10 °C 1001.3 hPa SSO 5.8 km/h 9.7 km/h 86% 0.0 mm
23:19 12.3 °C 10 °C 1001.3 hPa Sur 5.8 km/h 8 km/h 86% 0.0 mm
23:24 12.3 °C 10 °C 1001.3 hPa Sur 5.2 km/h 8 km/h 86% 0.0 mm
23:29 12.3 °C 10 °C 1001.0 hPa SSO 4.7 km/h 8 km/h 86% 0.0 mm
23:34 12.3 °C 10 °C 1001.0 hPa SO 4.8 km/h 8 km/h 86% 0.0 mm
23:39 12.3 °C 10.1 °C 1001.0 hPa OSO 5 km/h 8.4 km/h 86% 0.0 mm
23:44 12.4 °C 10.1 °C 1000.9 hPa Oeste 4.8 km/h 8 km/h 86% 0.0 mm
23:49 12.4 °C 10.1 °C 1000.9 hPa OSO 4.7 km/h 8.4 km/h 86% 0.0 mm
23:54 12.4 °C 10.1 °C 1000.9 hPa OSO 4.2 km/h 8 km/h 86% 0.0 mm
23:59 12.4 °C 10.1 °C 1000.9 hPa OSO 3.9 km/h 8 km/h 86% 0.0 mm
Murcia-Puente Tocinos, Espa?a
Compliments of Weather Underground - 3 mb

La estación de MeteoMurcia.com, publica sus datos en los siguientes proyectos:

Weather Underground PWS IMURCIAP2 Meteoclimatic www.awekas.at

W3Counter
Web Analytics